Time;durP1;ratioP1;P1;durP2;ratioP2;P2;SDS_P1;SDS_P2;PMS_P1;PMS_P2;Temp;Humidity;BMP_temperature;BMP_pressure;BME280_temperature;BME280_humidity;BME280_pressure;Samples;Min_cycle;Max_cycle;Signal;HPM_P1;HPM_P2
2021/12/08 00:01:18;;;;;;;99.97;42.35;;;1.50;99.90;;;;;;5036484;28;20543;-71
2021/12/08 00:03:43;;;;;;;94.95;43.88;;;1.60;99.90;;;;;;5035826;28;20025;-71
2021/12/08 00:06:09;;;;;;;106.38;44.17;;;1.50;99.90;;;;;;5036471;28;20029;-71
2021/12/08 00:08:35;;;;;;;96.38;42.85;;;1.50;99.90;;;;;;5036153;28;20096;-71
2021/12/08 00:13:47;;;;;;;88.45;42.88;;;1.50;99.90;;;;;;5038775;28;20086;-71
2021/12/08 00:16:13;;;;;;;87.38;42.78;;;1.50;99.90;;;;;;5035396;28;20485;-72
2021/12/08 00:18:45;;;;;;;96.78;41.95;;;1.50;99.90;;;;;;5040512;28;20563;-71
2021/12/08 00:21:11;;;;;;;102.20;43.80;;;1.50;99.90;;;;;;5056091;28;20032;-71
2021/12/08 00:23:37;;;;;;;102.68;46.15;;;1.40;99.90;;;;;;5056052;28;20021;-71
2021/12/08 00:26:04;;;;;;;107.53;44.40;;;1.40;99.90;;;;;;5055919;28;20033;-72
2021/12/08 00:28:31;;;;;;;108.10;44.40;;;1.40;99.90;;;;;;5018159;28;20022;-72
2021/12/08 00:30:58;;;;;;;103.82;45.95;;;1.40;99.90;;;;;;5015560;28;20058;-72
2021/12/08 00:33:26;;;;;;;114.65;46.75;;;1.40;99.90;;;;;;5026049;28;20033;-71
2021/12/08 00:35:52;;;;;;;102.63;45.55;;;1.40;99.90;;;;;;5034523;28;20025;-71
2021/12/08 00:38:20;;;;;;;109.57;46.70;;;1.40;99.90;;;;;;5035325;28;20079;-71
2021/12/08 00:40:48;;;;;;;96.82;43.15;;;1.30;99.90;;;;;;5035736;28;20113;-72
2021/12/08 00:43:14;;;;;;;112.13;47.33;;;1.30;99.90;;;;;;5037503;28;20053;-72
2021/12/08 00:45:40;;;;;;;101.65;44.67;;;1.40;99.90;;;;;;5054301;28;20477;-71
2021/12/08 00:48:06;;;;;;;102.75;45.05;;;1.40;99.90;;;;;;5055598;28;20028;-71
2021/12/08 00:50:35;;;;;;;100.30;45.13;;;1.40;99.90;;;;;;5054013;28;20025;-71
2021/12/08 00:53:01;;;;;;;95.43;44.05;;;1.40;99.90;;;;;;5040201;28;20537;-71
2021/12/08 00:55:27;;;;;;;96.63;44.90;;;1.40;99.90;;;;;;5001039;28;20116;-72
2021/12/08 00:57:54;;;;;;;96.03;44.13;;;1.40;99.90;;;;;;5052677;28;20032;-71
2021/12/08 01:00:28;;;;;;;97.45;42.08;;;1.30;99.90;;;;;;5055576;28;20025;-71
2021/12/08 01:02:53;;;;;;;91.68;44.03;;;1.40;99.90;;;;;;5055271;28;20040;-72
2021/12/08 01:05:23;;;;;;;97.63;45.42;;;1.30;99.90;;;;;;5035370;28;20477;-71
2021/12/08 01:07:48;;;;;;;91.90;42.78;;;1.30;99.90;;;;;;5037059;28;20032;-72
2021/12/08 01:10:19;;;;;;;100.10;42.50;;;1.30;99.90;;;;;;5039328;28;20112;-71
2021/12/08 01:12:45;;;;;;;96.10;41.70;;;1.30;99.90;;;;;;5035418;28;20029;-71
2021/12/08 01:15:10;;;;;;;104.93;42.28;;;1.30;99.90;;;;;;5036328;28;20021;-72
2021/12/08 01:17:38;;;;;;;99.10;47.10;;;1.30;99.90;;;;;;5017058;28;20034;-71
2021/12/08 01:20:06;;;;;;;93.10;41.83;;;1.30;99.90;;;;;;5015342;28;20052;-71
2021/12/08 01:22:32;;;;;;;96.38;42.08;;;1.30;99.90;;;;;;5045061;28;20065;-72
2021/12/08 01:24:58;;;;;;;90.47;40.33;;;1.30;99.90;;;;;;5055023;28;20488;-71
2021/12/08 01:27:23;;;;;;;89.90;39.40;;;1.30;99.90;;;;;;5044340;28;20108;-71
2021/12/08 01:29:49;;;;;;;86.78;37.95;;;1.40;99.90;;;;;;5034948;28;20029;-71
2021/12/08 01:32:15;;;;;;;92.57;42.00;;;1.30;99.90;;;;;;5035799;28;20049;-71
2021/12/08 01:34:40;;;;;;;83.38;37.95;;;1.30;99.90;;;;;;5054757;28;20032;-71
2021/12/08 01:37:06;;;;;;;93.85;40.97;;;1.30;99.90;;;;;;5055220;28;20036;-71
2021/12/08 01:39:32;;;;;;;98.25;42.00;;;1.30;99.90;;;;;;5050004;28;20048;-72
2021/12/08 01:41:57;;;;;;;87.43;41.08;;;1.30;99.90;;;;;;5053979;28;20028;-72
2021/12/08 01:47:07;;;;;;;96.60;43.45;;;1.30;99.90;;;;;;5035154;28;20099;-71
2021/12/08 01:49:33;;;;;;;88.70;41.10;;;1.30;99.90;;;;;;5034414;28;20477;-71
2021/12/08 01:51:59;;;;;;;81.90;38.67;;;1.20;99.90;;;;;;5033836;28;20021;-72
2021/12/08 01:54:25;;;;;;;80.78;38.88;;;1.20;99.90;;;;;;5034432;28;20036;-72
2021/12/08 01:56:51;;;;;;;78.30;38.80;;;1.20;99.90;;;;;;5047603;28;20059;-71
2021/12/08 01:59:17;;;;;;;84.10;40.42;;;1.20;99.90;;;;;;5054547;28;20512;-71
2021/12/08 02:01:44;;;;;;;85.18;38.58;;;1.20;99.90;;;;;;5051321;28;20040;-72
2021/12/08 02:04:11;;;;;;;85.45;40.33;;;1.20;99.90;;;;;;5048902;28;20596;-71
2021/12/08 02:06:44;;;;;;;86.28;40.42;;;1.20;99.90;;;;;;5034194;28;20036;-71
2021/12/08 02:09:14;;;;;;;90.70;41.70;;;1.20;99.90;;;;;;5036879;28;20427;-72
2021/12/08 02:11:41;;;;;;;100.63;42.90;;;1.20;99.90;;;;;;5036066;28;20032;-72
2021/12/08 02:14:07;;;;;;;90.60;40.72;;;1.20;99.90;;;;;;5036060;28;20116;-71
2021/12/08 02:16:33;;;;;;;94.35;41.25;;;1.20;99.90;;;;;;5033728;28;20439;-71
2021/12/08 02:19:00;;;;;;;95.53;40.95;;;1.20;99.90;;;;;;5033701;28;20026;-71
2021/12/08 02:21:35;;;;;;;103.68;43.22;;;1.20;99.90;;;;;;5034209;28;20083;-71
2021/12/08 02:24:05;;;;;;;92.20;41.20;;;1.20;99.90;;;;;;5033949;28;20029;-71
2021/12/08 02:26:31;;;;;;;91.90;40.60;;;1.20;99.90;;;;;;5042169;28;20021;-71
2021/12/08 02:29:01;;;;;;;95.70;43.30;;;1.20;99.90;;;;;;5035827;28;20017;-71
2021/12/08 02:46:37;;;;;;;97.00;44.00;;;1.20;99.90;;;;;;5028451;28;20037;-71
2021/12/08 02:48:04;;;;;;;97.38;40.40;;;1.30;99.90;;;;;;5029924;28;20507;-71
2021/12/08 02:50:34;;;;;;;103.13;42.22;;;1.30;99.90;;;;;;5032980;28;20116;-71
2021/12/08 02:53:00;;;;;;;88.82;38.17;;;1.30;99.90;;;;;;5014287;28;20032;-72
2021/12/08 02:55:28;;;;;;;85.28;38.92;;;1.30;99.90;;;;;;5025293;28;20033;-72
2021/12/08 02:57:54;;;;;;;93.70;39.15;;;1.30;99.90;;;;;;5013612;28;20080;-72
2021/12/08 03:00:25;;;;;;;92.45;41.35;;;1.30;99.90;;;;;;5016600;28;20025;-72
2021/12/08 03:02:55;;;;;;;88.05;39.30;;;1.30;99.90;;;;;;5033493;28;20451;-72
2021/12/08 03:05:21;;;;;;;90.53;41.00;;;1.40;99.90;;;;;;5032610;28;20120;-71
2021/12/08 03:07:47;;;;;;;88.43;40.05;;;1.30;99.90;;;;;;5014951;28;20017;-71
2021/12/08 03:10:16;;;;;;;91.40;38.67;;;1.40;99.90;;;;;;5024882;28;20030;-71
2021/12/08 03:12:42;;;;;;;98.32;38.67;;;1.40;99.90;;;;;;5029167;28;20040;-71
2021/12/08 03:15:09;;;;;;;76.05;36.75;;;1.40;99.90;;;;;;5021193;28;20034;-71
2021/12/08 03:17:35;;;;;;;89.45;37.22;;;1.50;99.90;;;;;;5013538;28;20100;-72
2021/12/08 03:20:06;;;;;;;92.95;38.33;;;1.50;99.90;;;;;;5026587;28;20189;-72
2021/12/08 03:22:34;;;;;;;88.90;38.47;;;1.50;99.90;;;;;;5013304;28;20022;-72
2021/12/08 03:25:01;;;;;;;84.57;39.00;;;1.50;99.90;;;;;;5027849;28;20033;-71
2021/12/08 03:27:33;;;;;;;77.63;36.72;;;1.50;99.90;;;;;;5015350;28;20032;-71
2021/12/08 03:30:12;;;;;;;88.45;38.95;;;1.50;99.90;;;;;;5023800;28;20054;-71
2021/12/08 03:32:39;;;;;;;87.80;38.15;;;1.50;99.90;;;;;;4995626;28;20034;-71
2021/12/08 03:35:11;;;;;;;83.25;37.83;;;1.50;99.90;;;;;;5012718;28;20069;-72
2021/12/08 03:37:40;;;;;;;83.50;37.78;;;1.50;99.90;;;;;;5013545;28;20037;-71
2021/12/08 03:40:22;;;;;;;83.13;37.40;;;1.50;99.90;;;;;;5013229;28;20034;-71
2021/12/08 03:42:50;;;;;;;88.88;38.15;;;1.60;99.90;;;;;;5022496;28;20029;-71
2021/12/08 03:45:26;;;;;;;79.40;34.83;;;1.60;99.90;;;;;;5014405;28;20037;-72
2021/12/08 03:48:00;;;;;;;84.35;35.97;;;1.60;99.90;;;;;;5032874;28;20100;-71
2021/12/08 03:50:26;;;;;;;86.43;34.75;;;1.60;99.90;;;;;;5002344;28;20029;-71
2021/12/08 03:52:51;;;;;;;79.95;34.35;;;1.70;99.90;;;;;;5021528;28;20025;-71
2021/12/08 03:55:17;;;;;;;83.63;33.90;;;1.70;99.90;;;;;;5001462;28;20084;-71
2021/12/08 03:57:43;;;;;;;72.53;32.75;;;1.80;99.90;;;;;;5020698;28;20091;-72
2021/12/08 04:00:17;;;;;;;71.45;33.60;;;1.80;99.90;;;;;;5030715;28;20060;-71
2021/12/08 04:02:44;;;;;;;71.28;32.63;;;1.80;99.90;;;;;;5032768;28;20485;-71
2021/12/08 04:05:10;;;;;;;78.25;34.33;;;1.80;99.90;;;;;;5011863;28;20038;-71
2021/12/08 04:07:43;;;;;;;77.40;34.17;;;1.80;99.90;;;;;;5014586;28;20022;-71
2021/12/08 04:10:16;;;;;;;70.13;33.30;;;1.80;99.90;;;;;;5025549;28;20021;-71
2021/12/08 04:12:42;;;;;;;67.43;28.85;;;1.90;99.90;;;;;;5012505;28;20021;-71
2021/12/08 04:15:09;;;;;;;67.90;30.63;;;1.90;99.90;;;;;;5020656;28;20033;-71
2021/12/08 04:17:42;;;;;;;69.95;30.23;;;1.90;99.90;;;;;;5024365;28;20457;-71
2021/12/08 04:20:16;;;;;;;71.85;31.67;;;2.00;99.90;;;;;;5013122;28;20065;-71
2021/12/08 04:22:46;;;;;;;67.75;29.75;;;2.00;99.90;;;;;;5011608;28;20596;-71
2021/12/08 04:25:17;;;;;;;59.55;29.50;;;2.00;99.90;;;;;;5014261;28;20038;-71
2021/12/08 04:27:44;;;;;;;74.93;29.92;;;2.00;99.90;;;;;;4998757;28;20401;-71
2021/12/08 04:30:28;;;;;;;55.80;27.58;;;2.10;99.90;;;;;;5016481;28;20493;-71
2021/12/08 04:32:53;;;;;;;;;;;2.10;99.90;;;;;;5016955;28;20111;-71
2021/12/08 04:35:21;;;;;;;60.05;28.77;;;2.10;99.90;;;;;;5015731;28;19956;-71
2021/12/08 04:37:52;;;;;;;70.60;29.20;;;2.10;99.90;;;;;;5016127;28;20481;-71
2021/12/08 04:40:31;;;;;;;58.45;28.92;;;2.20;99.90;;;;;;5016217;28;20029;-71
2021/12/08 04:43:10;;;;;;;61.70;30.67;;;2.20;99.90;;;;;;5015720;28;20022;-71
2021/12/08 04:46:02;;;;;;;64.63;28.77;;;2.20;99.90;;;;;;5006109;28;20108;-71
2021/12/08 04:48:48;;;;;;;73.95;30.20;;;2.30;99.90;;;;;;5017048;28;20021;-71
2021/12/08 04:51:45;;;;;;;67.05;29.48;;;2.30;99.90;;;;;;5017832;28;20022;-71
2021/12/08 05:05:24;;;;;;;;;;;2.20;99.90;;;;;;5018765;28;20084;-72
2021/12/08 05:07:56;;;;;;;69.32;30.40;;;2.10;99.90;;;;;;5028292;28;20257;-72
2021/12/08 05:10:32;;;;;;;60.38;28.08;;;2.10;99.90;;;;;;4997915;28;20025;-71
2021/12/08 05:13:00;;;;;;;70.75;30.50;;;2.00;99.90;;;;;;5031651;28;20018;-72
2021/12/08 05:15:30;;;;;;;69.70;32.38;;;2.00;99.90;;;;;;5035190;28;20432;-71
2021/12/08 05:18:15;;;;;;;73.40;30.75;;;1.90;99.90;;;;;;5034733;28;20029;-72
2021/12/08 05:20:44;;;;;;;77.38;30.35;;;1.90;99.90;;;;;;5019107;28;20506;-72
2021/12/08 05:23:18;;;;;;;65.55;30.30;;;1.80;99.90;;;;;;5015265;28;20022;-72
2021/12/08 05:25:45;;;;;;;74.30;31.90;;;1.80;99.90;;;;;;5015092;28;20481;-72
2021/12/08 05:28:18;;;;;;;76.68;33.63;;;1.80;99.90;;;;;;5015480;28;20026;-72
2021/12/08 05:30:50;;;;;;;79.47;34.08;;;1.80;99.90;;;;;;5121691;22;20030;-66
2021/12/08 05:33:16;;;;;;;79.32;34.55;;;1.80;99.90;;;;;;5034274;28;20400;-66
2021/12/08 05:35:43;;;;;;;69.38;31.65;;;1.80;99.90;;;;;;5034791;28;20025;-66
2021/12/08 05:38:10;;;;;;;77.50;32.67;;;1.80;99.90;;;;;;5035016;28;20033;-66
2021/12/08 05:40:36;;;;;;;79.07;33.90;;;1.80;99.90;;;;;;5034032;28;20038;-66
2021/12/08 05:43:03;;;;;;;70.88;31.30;;;1.80;99.90;;;;;;5034911;28;20029;-66
2021/12/08 05:45:29;;;;;;;78.80;34.13;;;1.70;99.90;;;;;;5034497;28;20032;-66
2021/12/08 05:47:55;;;;;;;80.18;34.08;;;1.70;99.90;;;;;;5034605;28;20025;-66
2021/12/08 05:50:32;;;;;;;73.72;32.35;;;1.60;99.90;;;;;;5034036;28;20435;-66
2021/12/08 05:52:58;;;;;;;78.00;33.53;;;1.50;99.90;;;;;;5033634;28;20484;-66
2021/12/08 05:55:24;;;;;;;75.72;33.20;;;1.40;99.90;;;;;;5016073;28;20389;-66
2021/12/08 05:57:49;;;;;;;90.15;34.33;;;1.30;99.90;;;;;;5029780;28;20018;-66
2021/12/08 06:00:29;;;;;;;86.05;34.13;;;1.30;99.90;;;;;;5023850;28;20524;-66
2021/12/08 06:02:56;;;;;;;82.72;34.53;;;1.20;99.90;;;;;;5020498;28;20017;-66
2021/12/08 06:05:23;;;;;;;81.90;35.17;;;1.20;99.90;;;;;;5032958;28;20568;-66
2021/12/08 06:07:49;;;;;;;89.22;35.22;;;1.10;99.90;;;;;;5025038;28;20026;-66
2021/12/08 06:10:20;;;;;;;88.55;35.67;;;1.10;99.90;;;;;;5028718;28;20034;-66
2021/12/08 06:12:46;;;;;;;91.82;34.47;;;1.00;99.90;;;;;;5022358;28;20030;-66
2021/12/08 06:15:13;;;;;;;89.90;35.55;;;1.00;99.90;;;;;;5029601;28;20025;-66
2021/12/08 06:17:39;;;;;;;93.13;36.33;;;1.00;99.90;;;;;;5030318;28;20029;-65
2021/12/08 06:20:11;;;;;;;99.68;36.83;;;1.00;99.90;;;;;;4996592;28;20025;-66
2021/12/08 06:22:38;;;;;;;96.25;34.78;;;1.00;99.90;;;;;;5009649;28;20025;-66
2021/12/08 06:25:05;;;;;;;97.38;33.97;;;1.00;99.90;;;;;;5027755;28;20040;-66
2021/12/08 06:27:30;;;;;;;82.97;33.53;;;1.00;99.90;;;;;;5031480;28;20453;-66
2021/12/08 06:29:56;;;;;;;82.38;33.15;;;1.00;99.90;;;;;;5030973;28;20029;-66
2021/12/08 06:32:23;;;;;;;90.80;36.75;;;1.00;99.90;;;;;;5013351;28;20045;-66
2021/12/08 06:34:53;;;;;;;93.22;34.80;;;1.00;99.90;;;;;;5017505;28;20552;-65
2021/12/08 06:37:28;;;;;;;86.72;34.28;;;1.00;99.90;;;;;;5034033;28;20092;-66
2021/12/08 06:40:05;;;;;;;95.60;37.65;;;1.00;99.90;;;;;;5029779;28;20406;-66
2021/12/08 06:42:35;;;;;;;89.28;35.47;;;1.10;99.90;;;;;;5013995;28;20477;-66
2021/12/08 06:45:03;;;;;;;84.53;34.45;;;1.10;99.90;;;;;;5016407;28;20026;-66
2021/12/08 06:47:32;;;;;;;93.03;36.00;;;1.10;99.90;;;;;;5028611;28;20033;-66
2021/12/08 06:50:01;;;;;;;82.30;34.25;;;1.10;99.90;;;;;;5031999;28;20108;-66
2021/12/08 06:52:31;;;;;;;82.10;35.55;;;1.10;99.90;;;;;;5031811;28;20084;-66
2021/12/08 06:55:07;;;;;;;95.03;35.40;;;1.10;99.90;;;;;;5024774;28;20028;-66
2021/12/08 06:57:52;;;;;;;93.30;37.00;;;1.10;99.90;;;;;;5019997;28;20055;-66
2021/12/08 07:01:00;;;;;;;86.88;36.50;;;1.20;99.90;;;;;;5013766;28;20025;-66
2021/12/08 07:03:39;;;;;;;96.72;37.45;;;1.10;99.90;;;;;;5010643;28;20558;-66
2021/12/08 07:06:29;;;;;;;84.18;36.13;;;1.10;99.90;;;;;;5013481;28;20030;-66
2021/12/08 07:08:57;;;;;;;92.53;37.05;;;1.20;99.90;;;;;;5013020;28;20026;-66
2021/12/08 07:11:23;;;;;;;72.72;34.80;;;1.20;99.90;;;;;;5029930;28;20022;-66
2021/12/08 07:13:52;;;;;;;80.47;35.45;;;1.20;99.90;;;;;;5026633;28;20037;-66
2021/12/08 07:16:21;;;;;;;88.22;36.67;;;1.20;99.90;;;;;;5016097;28;20037;-66
2021/12/08 07:18:58;;;;;;;82.20;34.17;;;1.10;99.90;;;;;;5016638;28;20030;-66
2021/12/08 07:21:31;;;;;;;84.72;35.35;;;1.10;99.90;;;;;;5033373;28;20100;-65
2021/12/08 07:24:02;;;;;;;79.43;33.53;;;1.10;99.90;;;;;;5033381;28;20033;-66
2021/12/08 07:26:32;;;;;;;78.22;33.83;;;1.10;99.90;;;;;;5032525;28;20500;-66
2021/12/08 07:28:58;;;;;;;74.47;33.83;;;1.10;99.90;;;;;;5021081;28;20409;-66
2021/12/08 07:31:36;;;;;;;77.63;34.80;;;1.00;99.90;;;;;;5013096;28;20033;-66
2021/12/08 07:34:06;;;;;;;82.72;35.95;;;1.00;99.90;;;;;;5013386;28;20030;-66
2021/12/08 07:36:35;;;;;;;75.63;33.75;;;1.10;99.90;;;;;;5012716;28;20046;-66
2021/12/08 07:39:06;;;;;;;76.88;33.33;;;1.10;99.90;;;;;;5013439;28;20022;-66
2021/12/08 07:41:35;;;;;;;82.93;36.80;;;1.10;99.90;;;;;;5013377;28;20018;-66
2021/12/08 07:44:06;;;;;;;82.70;33.85;;;1.10;99.90;;;;;;5013336;28;20396;-66
2021/12/08 07:46:39;;;;;;;82.68;36.05;;;1.10;99.90;;;;;;5024856;28;20116;-66
2021/12/08 07:49:13;;;;;;;80.97;33.85;;;1.10;99.90;;;;;;5016494;28;20034;-66
2021/12/08 07:51:57;;;;;;;88.40;36.60;;;1.10;99.90;;;;;;5013256;28;20064;-66
2021/12/08 07:54:23;;;;;;;79.22;32.97;;;1.20;99.90;;;;;;5019796;28;20087;-66
2021/12/08 07:56:55;;;;;;;86.18;35.15;;;1.20;99.90;;;;;;5013062;28;20034;-66
2021/12/08 07:59:22;;;;;;;69.32;31.15;;;1.20;99.90;;;;;;5014085;28;20072;-66
2021/12/08 08:01:50;;;;;;;73.50;31.23;;;1.10;99.90;;;;;;5015939;28;20030;-66
2021/12/08 08:04:20;;;;;;;73.30;32.83;;;1.10;99.90;;;;;;5024150;28;20036;-66
2021/12/08 08:06:51;;;;;;;77.25;32.38;;;1.10;99.90;;;;;;5032630;28;20030;-66
2021/12/08 08:09:22;;;;;;;71.07;33.70;;;1.10;99.90;;;;;;5016836;28;20057;-66
2021/12/08 08:11:58;;;;;;;80.05;33.85;;;1.10;99.90;;;;;;5022931;28;20057;-66
2021/12/08 08:14:31;;;;;;;70.40;33.53;;;1.10;99.90;;;;;;5024258;28;20029;-65
2021/12/08 08:16:59;;;;;;;73.15;32.55;;;1.00;99.90;;;;;;5021841;28;20393;-66
2021/12/08 08:19:29;;;;;;;77.25;34.80;;;1.00;99.90;;;;;;5035919;28;20510;-66
2021/12/08 08:22:07;;;;;;;77.03;34.30;;;1.00;99.90;;;;;;5032762;28;20481;-66
2021/12/08 08:24:33;;;;;;;76.93;33.53;;;1.00;99.90;;;;;;5026857;28;20163;-65
2021/12/08 08:27:02;;;;;;;82.28;33.97;;;1.10;99.90;;;;;;5030533;28;20021;-65
2021/12/08 08:29:28;;;;;;;72.70;35.00;;;1.10;99.90;;;;;;5016189;28;20049;-65
2021/12/08 08:32:08;;;;;;;79.10;34.35;;;1.10;99.90;;;;;;5015729;28;20030;-65
2021/12/08 08:34:38;;;;;;;82.05;35.88;;;1.20;99.90;;;;;;5033535;28;20044;-65
2021/12/08 08:37:11;;;;;;;72.80;33.58;;;1.20;99.90;;;;;;5021628;28;20117;-65
2021/12/08 08:39:44;;;;;;;72.30;32.90;;;1.20;99.90;;;;;;5024275;28;20108;-66
2021/12/08 08:42:16;;;;;;;77.70;35.63;;;1.20;99.90;;;;;;5016556;28;20264;-65
2021/12/08 08:45:03;;;;;;;83.78;37.03;;;1.20;99.90;;;;;;5016311;28;20041;-65
2021/12/08 08:47:33;;;;;;;75.75;35.05;;;1.30;99.90;;;;;;5035979;28;20456;-65
2021/12/08 08:49:59;;;;;;;76.35;34.08;;;1.30;99.90;;;;;;5035663;28;20036;-66
2021/12/08 08:52:30;;;;;;;74.60;35.65;;;1.30;99.90;;;;;;5035613;28;20021;-66
2021/12/08 08:55:04;;;;;;;73.97;36.03;;;1.30;99.90;;;;;;5035724;28;20511;-66
2021/12/08 08:57:34;;;;;;;74.15;34.72;;;1.40;99.90;;;;;;5035131;28;20564;-66
2021/12/08 09:00:14;;;;;;;77.15;34.47;;;1.40;99.90;;;;;;5033482;28;20057;-66
2021/12/08 09:02:40;;;;;;;74.70;33.88;;;1.30;99.90;;;;;;5035341;28;20026;-66
2021/12/08 09:05:15;;;;;;;85.63;37.65;;;1.40;99.90;;;;;;5027871;28;20034;-66
2021/12/08 09:07:46;;;;;;;94.57;39.33;;;1.40;99.90;;;;;;5015868;28;20466;-66
2021/12/08 09:10:20;;;;;;;80.57;37.15;;;1.40;99.90;;;;;;5021624;28;20026;-66
2021/12/08 09:12:57;;;;;;;78.20;36.88;;;1.40;99.90;;;;;;5035372;28;20108;-66
2021/12/08 09:15:37;;;;;;;79.95;35.42;;;1.50;99.90;;;;;;5035498;28;20392;-66
2021/12/08 09:18:11;;;;;;;90.97;35.40;;;1.50;99.90;;;;;;5034648;28;20477;-66
2021/12/08 09:20:58;;;;;;;70.75;34.47;;;1.50;99.90;;;;;;5035012;28;20043;-66
2021/12/08 09:23:47;;;;;;;70.78;34.88;;;1.50;99.90;;;;;;5035147;28;20017;-66
2021/12/08 09:26:17;;;;;;;76.20;37.78;;;1.50;99.90;;;;;;5035478;28;20021;-66
2021/12/08 09:28:50;;;;;;;76.05;36.47;;;1.60;99.90;;;;;;5035137;28;20028;-66
2021/12/08 09:31:27;;;;;;;78.07;38.10;;;1.60;99.90;;;;;;5034458;28;20030;-66
2021/12/08 09:34:01;;;;;;;76.30;37.17;;;1.60;99.90;;;;;;5034940;28;20068;-66
2021/12/08 09:36:42;;;;;;;72.03;35.78;;;1.60;99.90;;;;;;5035128;28;20092;-66
2021/12/08 09:39:22;;;;;;;73.80;37.10;;;1.60;99.90;;;;;;5033770;28;20411;-66
2021/12/08 09:42:19;;;;;;;75.07;35.40;;;1.70;99.90;;;;;;5014330;28;20029;-66
2021/12/08 09:45:14;;;;;;;75.55;36.22;;;1.70;99.90;;;;;;4988897;28;20049;-66
2021/12/08 09:47:40;;;;;;;66.82;33.33;;;1.70;99.90;;;;;;5014396;28;20037;-65
2021/12/08 09:50:08;;;;;;;76.95;35.30;;;1.80;99.90;;;;;;5014341;28;20033;-65
2021/12/08 09:52:34;;;;;;;87.75;38.08;;;1.70;99.90;;;;;;5014845;28;20084;-66
2021/12/08 09:55:01;;;;;;;77.20;38.08;;;1.80;99.90;;;;;;5016934;28;20108;-66
2021/12/08 09:57:28;;;;;;;74.78;36.65;;;1.80;99.90;;;;;;5014676;28;20105;-66
2021/12/08 09:59:55;;;;;;;67.40;34.80;;;1.80;99.90;;;;;;5014872;28;20033;-65
2021/12/08 10:02:34;;;;;;;66.38;35.95;;;1.80;99.90;;;;;;5033807;28;20025;-65
2021/12/08 10:05:10;;;;;;;88.53;36.88;;;1.90;99.90;;;;;;5034225;28;20021;-66
2021/12/08 10:07:37;;;;;;;70.18;34.53;;;1.90;99.90;;;;;;5019893;28;20378;-65
2021/12/08 10:10:05;;;;;;;69.18;34.60;;;1.90;99.90;;;;;;5017083;28;20018;-66
2021/12/08 10:12:34;;;;;;;76.28;34.80;;;1.90;99.90;;;;;;4996726;28;20026;-65
2021/12/08 10:14:59;;;;;;;68.57;33.75;;;2.00;99.90;;;;;;5014974;28;20088;-65
2021/12/08 10:17:25;;;;;;;69.22;35.92;;;2.00;99.90;;;;;;5021598;28;20466;-65
2021/12/08 10:20:12;;;;;;;65.00;34.08;;;2.00;99.90;;;;;;5014247;28;20022;-66
2021/12/08 10:22:38;;;;;;;73.55;35.28;;;2.10;99.90;;;;;;5015974;28;20030;-65
2021/12/08 10:25:17;;;;;;;64.68;34.17;;;2.10;99.90;;;;;;5014366;28;20026;-65
2021/12/08 10:28:02;;;;;;;75.30;35.00;;;2.10;99.90;;;;;;5013443;28;20037;-65
2021/12/08 10:30:28;;;;;;;74.25;34.92;;;2.10;99.90;;;;;;5033629;28;20029;-65
2021/12/08 10:32:54;;;;;;;71.18;34.08;;;2.20;99.90;;;;;;5033679;28;20405;-65
2021/12/08 10:35:48;;;;;;;64.43;32.95;;;2.20;99.90;;;;;;5033115;28;20049;-65
2021/12/08 10:38:16;;;;;;;71.07;35.15;;;2.20;99.90;;;;;;5033950;28;20025;-65
2021/12/08 10:41:04;;;;;;;68.22;31.42;;;2.30;99.90;;;;;;5018734;28;20076;-65
2021/12/08 10:43:30;;;;;;;68.20;31.90;;;2.30;99.90;;;;;;5014184;28;20363;-65
2021/12/08 10:46:13;;;;;;;68.80;34.25;;;2.30;99.90;;;;;;5014253;28;20018;-65
2021/12/08 10:48:45;;;;;;;62.42;31.67;;;2.40;99.90;;;;;;5032222;28;20083;-65
2021/12/08 10:54:26;;;;;;;67.88;33.20;;;2.30;99.90;;;;;;5034023;28;20515;-65
2021/12/08 10:56:56;;;;;;;56.92;29.40;;;2.50;99.90;;;;;;5032716;28;20472;-66
2021/12/08 10:59:27;;;;;;;56.08;29.75;;;2.50;99.90;;;;;;5033429;28;20048;-65
2021/12/08 11:01:59;;;;;;;57.13;30.70;;;2.50;99.90;;;;;;5033608;28;20067;-66
2021/12/08 11:04:30;;;;;;;58.65;30.85;;;2.50;99.90;;;;;;5023239;28;20041;-66
2021/12/08 11:07:04;;;;;;;63.85;29.80;;;2.50;99.90;;;;;;5013835;28;20037;-65
2021/12/08 11:09:39;;;;;;;55.33;29.20;;;2.50;99.90;;;;;;5018733;28;20030;-65
2021/12/08 11:12:05;;;;;;;51.33;29.02;;;2.60;99.90;;;;;;5033445;28;20443;-65
2021/12/08 11:14:46;;;;;;;54.70;27.98;;;2.70;99.90;;;;;;5032164;28;20026;-65
2021/12/08 11:17:27;;;;;;;57.80;27.42;;;2.70;99.90;;;;;;5032439;28;20032;-65
2021/12/08 11:20:20;;;;;;;54.70;27.13;;;2.60;99.90;;;;;;5022059;28;20036;-66
2021/12/08 11:23:03;;;;;;;61.55;28.38;;;2.70;99.90;;;;;;5015053;28;20033;-66
2021/12/08 11:25:40;;;;;;;50.13;26.90;;;2.60;99.90;;;;;;5020532;28;20125;-66
2021/12/08 11:28:22;;;;;;;59.90;29.77;;;2.60;99.90;;;;;;5024522;28;20073;-66
2021/12/08 11:33:22;;;;;;;52.25;28.80;;;2.60;99.90;;;;;;5023553;28;20052;-74
2021/12/08 11:36:05;;;;;;;55.20;28.27;;;2.70;99.90;;;;;;5034419;28;20029;-74
2021/12/08 11:38:31;;;;;;;52.40;27.07;;;2.70;99.90;;;;;;5032422;28;20515;-72
2021/12/08 11:40:57;;;;;;;58.30;27.00;;;2.70;99.90;;;;;;5026268;28;20279;-72
2021/12/08 11:43:29;;;;;;;50.13;27.52;;;2.80;99.90;;;;;;5025584;28;20121;-75
2021/12/08 11:46:16;;;;;;;51.10;25.90;;;2.80;99.90;;;;;;5021194;28;20030;-75
2021/12/08 11:49:04;;;;;;;49.75;25.88;;;2.80;99.90;;;;;;5028528;28;20021;-75
2021/12/08 11:51:33;;;;;;;49.75;28.50;;;2.80;99.90;;;;;;5027842;28;20021;-74
2021/12/08 11:53:59;;;;;;;43.38;24.75;;;2.80;99.90;;;;;;5021540;28;20029;-75
2021/12/08 11:56:40;;;;;;;50.25;28.13;;;2.80;99.90;;;;;;5027266;28;20112;-74
2021/12/08 11:59:09;;;;;;;47.40;25.40;;;2.90;99.90;;;;;;5023653;28;20064;-75
2021/12/08 12:01:36;;;;;;;49.30;25.05;;;2.90;99.90;;;;;;5027853;28;20032;-72
2021/12/08 12:04:04;;;;;;;53.95;26.15;;;3.00;99.90;;;;;;5031316;28;20054;-71
2021/12/08 12:06:30;;;;;;;50.80;25.30;;;3.00;99.90;;;;;;5016694;28;20037;-71
2021/12/08 12:08:58;;;;;;;51.95;26.58;;;3.00;99.90;;;;;;5016191;28;20092;-72
2021/12/08 12:11:28;;;;;;;48.75;24.65;;;3.00;99.90;;;;;;5018831;28;20044;-71
2021/12/08 12:13:55;;;;;;;52.08;25.77;;;3.10;99.90;;;;;;5025216;28;20056;-71
2021/12/08 12:16:22;;;;;;;47.78;23.58;;;3.10;99.90;;;;;;5016548;28;20036;-71
2021/12/08 12:18:47;;;;;;;41.47;25.08;;;3.00;99.90;;;;;;5016591;28;20030;-71
2021/12/08 12:21:22;;;;;;;49.67;25.58;;;3.10;99.90;;;;;;5016573;28;20121;-71
2021/12/08 12:24:09;;;;;;;47.97;25.55;;;3.10;99.90;;;;;;5014611;28;20124;-71
2021/12/08 12:27:01;;;;;;;47.00;25.60;;;3.10;99.90;;;;;;5016533;28;20088;-70
2021/12/08 12:29:57;;;;;;;47.38;24.55;;;3.10;99.90;;;;;;5016328;28;20544;-71
2021/12/08 12:32:29;;;;;;;45.67;23.60;;;3.20;99.90;;;;;;5016361;28;20417;-71
2021/12/08 12:35:09;;;;;;;46.03;25.27;;;3.20;99.90;;;;;;5016120;28;20030;-72
2021/12/08 12:37:36;;;;;;;41.88;23.05;;;3.20;99.90;;;;;;5016420;28;20114;-72
2021/12/08 12:40:07;;;;;;;49.65;24.92;;;3.20;99.90;;;;;;5016190;28;20087;-71
2021/12/08 12:43:03;;;;;;;44.95;23.75;;;3.20;99.90;;;;;;5014364;28;20018;-71
2021/12/08 12:45:38;;;;;;;42.97;24.33;;;3.20;99.90;;;;;;5011019;28;20398;-71
2021/12/08 12:48:20;;;;;;;44.20;24.08;;;3.20;99.90;;;;;;5014796;28;20026;-71
2021/12/08 12:51:19;;;;;;;47.60;23.38;;;3.20;99.90;;;;;;5021524;28;20020;-72
2021/12/08 12:53:54;;;;;;;49.88;26.77;;;3.30;99.90;;;;;;5023816;28;20034;-71
2021/12/08 12:56:35;;;;;;;45.72;24.15;;;3.40;99.90;;;;;;5033430;28;20033;-71
2021/12/08 12:59:13;;;;;;;40.47;22.92;;;3.50;99.90;;;;;;5031460;28;20036;-71
2021/12/08 13:01:45;;;;;;;47.65;23.25;;;3.60;99.90;;;;;;5034308;28;20029;-71
2021/12/08 13:04:21;;;;;;;41.65;22.77;;;3.60;99.90;;;;;;5034072;28;20075;-71
2021/12/08 13:07:04;;;;;;;41.53;24.02;;;3.70;99.90;;;;;;5035789;28;20052;-71
2021/12/08 13:09:47;;;;;;;42.42;21.10;;;3.90;99.90;;;;;;5035472;28;20048;-71
2021/12/08 13:12:40;;;;;;;37.53;20.70;;;4.20;99.90;;;;;;5015516;28;20026;-71
2021/12/08 13:15:13;;;;;;;35.83;20.77;;;4.10;99.90;;;;;;5014082;28;20389;-71
2021/12/08 13:17:58;;;;;;;36.28;20.30;;;4.00;99.90;;;;;;5019754;28;20128;-71
2021/12/08 13:20:26;;;;;;;38.08;22.15;;;3.80;99.90;;;;;;5015740;28;20045;-71
2021/12/08 13:22:55;;;;;;;39.08;19.40;;;3.90;99.90;;;;;;5017526;28;20160;-71
2021/12/08 13:25:31;;;;;;;37.55;19.83;;;3.90;99.90;;;;;;5021783;28;20380;-71
2021/12/08 13:28:33;;;;;;;34.50;20.50;;;3.80;99.90;;;;;;5035314;28;20056;-71
2021/12/08 13:31:08;;;;;;;38.13;20.63;;;3.70;99.90;;;;;;5027116;28;20029;-71
2021/12/08 13:33:38;;;;;;;34.30;20.10;;;3.70;99.90;;;;;;5015232;28;20036;-71
2021/12/08 13:36:30;;;;;;;37.42;21.35;;;3.60;99.90;;;;;;5015020;28;20072;-71